createdAt,value
2022-10-12T00:00:56.367Z,97617.47
2022-10-12T00:03:23.714Z,97623.94
2022-10-12T00:06:00.159Z,97621.97
2022-10-12T00:08:34.835Z,97621.44
2022-10-12T00:11:01.262Z,97624.38
2022-10-12T00:13:27.680Z,97623.41
2022-10-12T00:15:55.089Z,97624.31
2022-10-12T00:18:21.408Z,97623.84
2022-10-12T00:20:47.939Z,97622.66
2022-10-12T00:23:14.320Z,97619.06
2022-10-12T00:25:41.385Z,97616.03
2022-10-12T00:28:08.059Z,97625.59
2022-10-12T00:30:34.818Z,97616.88
2022-10-12T00:33:02.221Z,97614.09
2022-10-12T00:35:29.513Z,97610.34
2022-10-12T00:37:56.279Z,97619.06
2022-10-12T00:40:23.196Z,97619.72
2022-10-12T00:42:49.564Z,97622.78
2022-10-12T00:45:19.068Z,97620.72
2022-10-12T00:47:50.808Z,97615.47
2022-10-12T00:50:25.437Z,97620.03
2022-10-12T00:53:06.462Z,97615.59
2022-10-12T00:55:37.863Z,97620.03
2022-10-12T00:58:05.495Z,97616.66
2022-10-12T01:00:40.872Z,97614.72
2022-10-12T01:03:09.647Z,97612.09
2022-10-12T01:05:37.426Z,97608.50
2022-10-12T01:08:03.753Z,97608.63
2022-10-12T01:10:36.043Z,97618.66
2022-10-12T01:13:02.619Z,97616.50
2022-10-12T01:15:44.153Z,97610.28
2022-10-12T01:18:16.427Z,97617.03
2022-10-12T01:21:01.755Z,97614.31
2022-10-12T01:23:49.632Z,97623.50
2022-10-12T01:26:25.262Z,97623.09
2022-10-12T01:28:54.728Z,97616.09
2022-10-12T01:31:21.176Z,97619.28
2022-10-12T01:34:08.620Z,97608.31
2022-10-12T01:36:41.573Z,97620.16
2022-10-12T01:39:12.547Z,97612.81
2022-10-12T01:41:48.024Z,97621.25
2022-10-12T01:44:21.238Z,97612.00
2022-10-12T01:46:47.780Z,97612.00
2022-10-12T01:49:16.510Z,97608.69
2022-10-12T01:52:01.675Z,97607.19
2022-10-12T01:54:46.920Z,97598.06
2022-10-12T01:57:35.672Z,97609.22
2022-10-12T02:00:05.107Z,97607.56
2022-10-12T02:02:37.408Z,97600.97
2022-10-12T02:05:22.471Z,97596.78
2022-10-12T02:07:51.715Z,97599.97
2022-10-12T02:10:26.097Z,97597.91
2022-10-12T02:12:53.191Z,97592.34
2022-10-12T02:15:21.436Z,97595.53
2022-10-12T02:17:49.122Z,97591.53
2022-10-12T02:20:17.564Z,97588.91
2022-10-12T02:22:46.380Z,97590.69
2022-10-12T02:25:14.044Z,97590.47
2022-10-12T02:27:44.726Z,97580.25
2022-10-12T02:30:11.631Z,97582.47
2022-10-12T02:33:03.478Z,97585.31
2022-10-12T02:35:34.216Z,97585.16
2022-10-12T02:38:04.698Z,97572.81
2022-10-12T02:40:34.775Z,97579.22
2022-10-12T02:43:10.549Z,97585.28
2022-10-12T02:45:39.862Z,97574.22
2022-10-12T02:48:09.244Z,97579.69
2022-10-12T02:50:38.297Z,97571.13
2022-10-12T02:53:04.686Z,97569.94
2022-10-12T02:55:31.440Z,97578.47
2022-10-12T02:57:59.581Z,97579.75
2022-10-12T03:00:25.963Z,97575.63
2022-10-12T03:02:52.272Z,97567.00
2022-10-12T03:05:18.583Z,97573.00
2022-10-12T03:07:44.920Z,97567.56
2022-10-12T03:10:12.268Z,97575.84
2022-10-12T03:12:38.673Z,97576.00
2022-10-12T03:15:05.312Z,97575.84
2022-10-12T03:17:33.637Z,97582.13
2022-10-12T03:19:59.991Z,97583.88
2022-10-12T03:22:26.391Z,97583.97
2022-10-12T03:24:53.811Z,97580.06
2022-10-12T03:27:20.216Z,97582.97
2022-10-12T03:29:46.587Z,97586.44
2022-10-12T03:32:19.090Z,97583.34
2022-10-12T03:34:47.406Z,97574.97
2022-10-12T03:37:13.924Z,97576.59
2022-10-12T03:39:40.246Z,97578.25
2022-10-12T03:42:06.638Z,97583.50
2022-10-12T03:44:33.075Z,97578.34
2022-10-12T03:46:59.493Z,97582.53
2022-10-12T03:49:28.876Z,97582.06
2022-10-12T03:51:55.302Z,97579.09
2022-10-12T03:54:21.618Z,97584.56
2022-10-12T03:56:48.106Z,97579.53
2022-10-12T03:59:14.421Z,97582.00
2022-10-12T04:01:40.755Z,97580.38
2022-10-12T04:04:07.179Z,97576.53
2022-10-12T04:06:33.514Z,97573.16
2022-10-12T04:08:59.868Z,97581.56
2022-10-12T04:11:27.340Z,97576.53
2022-10-12T04:13:53.656Z,97576.16
2022-10-12T04:16:20.094Z,97579.53
2022-10-12T04:18:46.520Z,97578.19
2022-10-12T04:21:14.665Z,97585.69
2022-10-12T04:23:42.616Z,97574.50
2022-10-12T04:26:09.203Z,97580.97
2022-10-12T04:28:35.596Z,97580.94
2022-10-12T04:31:02.002Z,97583.28
2022-10-12T04:33:28.327Z,97573.22
2022-10-12T04:35:55.773Z,97579.47
2022-10-12T04:38:22.191Z,97578.56
2022-10-12T04:40:49.970Z,97579.97
2022-10-12T04:43:16.730Z,97582.97
2022-10-12T04:45:43.149Z,97578.56
2022-10-12T04:48:09.606Z,97591.66
2022-10-12T04:50:36.255Z,97582.31
2022-10-12T04:53:02.746Z,97587.69
2022-10-12T04:55:29.074Z,97588.22
2022-10-12T04:57:55.507Z,97592.13
2022-10-12T05:00:22.121Z,97595.34
2022-10-12T05:02:48.488Z,97595.78
2022-10-12T05:05:14.884Z,97600.94
2022-10-12T05:07:41.322Z,97599.78
2022-10-12T05:10:08.174Z,97602.00
2022-10-12T05:12:34.584Z,97605.97
2022-10-12T05:15:01.967Z,97602.63
2022-10-12T05:17:28.271Z,97601.00
2022-10-12T05:19:55.656Z,97599.59
2022-10-12T05:22:22.041Z,97607.72
2022-10-12T05:24:53.925Z,97597.16
2022-10-12T05:27:22.788Z,97597.84
2022-10-12T05:29:49.108Z,97594.00
2022-10-12T05:32:15.738Z,97597.19
2022-10-12T05:34:42.372Z,97604.25
2022-10-12T05:37:09.766Z,97610.31
2022-10-12T05:39:37.284Z,97604.94
2022-10-12T05:42:04.123Z,97603.94
2022-10-12T05:44:30.580Z,97607.38
2022-10-12T05:46:56.911Z,97608.34
2022-10-12T05:49:24.306Z,97609.59
2022-10-12T05:51:50.640Z,97605.22
2022-10-12T05:54:18.144Z,97602.75
2022-10-12T05:56:44.488Z,97601.63
2022-10-12T05:59:11.566Z,97606.47
2022-10-12T06:01:37.967Z,97603.31
2022-10-12T06:04:04.450Z,97614.78
2022-10-12T06:06:30.836Z,97606.78
2022-10-12T06:08:57.200Z,97608.53
2022-10-12T06:11:24.751Z,97608.53
2022-10-12T06:13:51.069Z,97605.72
2022-10-12T06:16:17.550Z,97609.06
2022-10-12T06:18:43.868Z,97611.19
2022-10-12T06:23:57.726Z,97602.25
2022-10-12T06:26:24.880Z,97601.09
2022-10-12T06:28:51.333Z,97605.22
2022-10-12T06:31:17.697Z,97599.84
2022-10-12T06:33:45.126Z,97600.44
2022-10-12T06:36:11.508Z,97603.00
2022-10-12T06:38:39.003Z,97606.09
2022-10-12T06:41:05.420Z,97600.72
2022-10-12T06:43:32.788Z,97598.56
2022-10-12T06:46:00.121Z,97613.34
2022-10-12T06:48:26.502Z,97604.63
2022-10-12T06:50:52.828Z,97610.50
2022-10-12T06:53:19.689Z,97607.03
2022-10-12T06:55:46.123Z,97609.00
2022-10-12T06:58:12.477Z,97614.03
2022-10-12T07:00:38.933Z,97613.78
2022-10-12T07:03:05.454Z,97603.72
2022-10-12T07:05:31.893Z,97612.28
2022-10-12T07:07:58.313Z,97617.28
2022-10-12T07:10:25.207Z,97621.41
2022-10-12T07:12:51.566Z,97617.53
2022-10-12T07:15:18.015Z,97628.56
2022-10-12T07:17:44.461Z,97623.97
2022-10-12T07:20:12.942Z,97629.03
2022-10-12T07:22:39.398Z,97634.84
2022-10-12T07:25:06.136Z,97633.38
2022-10-12T07:27:32.457Z,97632.91
2022-10-12T07:29:58.777Z,97632.09
2022-10-12T07:32:25.540Z,97622.38
2022-10-12T07:34:51.929Z,97634.06
2022-10-12T07:37:18.335Z,97627.78
2022-10-12T07:39:47.213Z,97636.53
2022-10-12T07:42:18.214Z,97639.53
2022-10-12T07:44:45.535Z,97635.25
2022-10-12T07:47:11.887Z,97638.38
2022-10-12T07:49:38.206Z,97645.13
2022-10-12T07:52:04.618Z,97645.94
2022-10-12T07:54:32.865Z,97647.78
2022-10-12T07:56:59.295Z,97649.41
2022-10-12T07:59:25.644Z,97641.00
2022-10-12T08:01:53.196Z,97639.84
2022-10-12T08:04:19.626Z,97639.84
2022-10-12T08:06:46.700Z,97647.75
2022-10-12T08:09:13.063Z,97645.47
2022-10-12T08:11:40.269Z,97642.66
2022-10-12T08:14:07.182Z,97643.31
2022-10-12T08:16:33.595Z,97648.28
2022-10-12T08:19:00.397Z,97650.56
2022-10-12T08:21:26.713Z,97654.19
2022-10-12T08:23:53.129Z,97655.50
2022-10-12T08:26:19.446Z,97648.59
2022-10-12T08:28:46.013Z,97647.44
2022-10-12T08:31:14.832Z,97648.56
2022-10-12T08:33:41.224Z,97642.34
2022-10-12T08:36:07.785Z,97640.31
2022-10-12T08:38:35.360Z,97641.41
2022-10-12T08:41:10.827Z,97635.09
2022-10-12T08:44:00.462Z,97636.56
2022-10-12T08:46:27.303Z,97634.88
2022-10-12T08:49:05.541Z,97628.88
2022-10-12T08:51:33.430Z,97623.25
2022-10-12T08:53:59.796Z,97623.34
2022-10-12T08:56:26.282Z,97614.34
2022-10-12T08:58:53.316Z,97614.13
2022-10-12T09:01:39.450Z,97613.34
2022-10-12T09:04:24.051Z,97611.72
2022-10-12T09:07:00.683Z,97609.00
2022-10-12T09:09:45.896Z,97609.59
2022-10-12T09:12:21.220Z,97602.72
2022-10-12T09:14:48.205Z,97611.72
2022-10-12T09:17:26.659Z,97614.56
2022-10-12T09:20:01.526Z,97612.22
2022-10-12T09:22:29.186Z,97615.88
2022-10-12T09:24:57.062Z,97613.44
2022-10-12T09:27:23.844Z,97610.97
2022-10-12T09:29:59.070Z,97612.06
2022-10-12T09:32:40.854Z,97614.63
2022-10-12T09:35:08.182Z,97617.84
2022-10-12T09:37:35.421Z,97612.31
2022-10-12T09:40:02.165Z,97609.69
2022-10-12T09:42:28.501Z,97607.75
2022-10-12T09:45:13.961Z,97606.13
2022-10-12T09:47:40.616Z,97603.84
2022-10-12T09:50:07.735Z,97606.53
2022-10-12T09:52:36.889Z,97602.63
2022-10-12T09:55:06.775Z,97603.72
2022-10-12T09:57:35.494Z,97599.19
2022-10-12T10:00:06.061Z,97599.09
2022-10-12T10:02:46.976Z,97599.44
2022-10-12T10:05:24.024Z,97591.41
2022-10-12T10:07:50.503Z,97597.13
2022-10-12T10:10:17.507Z,97596.25
2022-10-12T10:12:48.705Z,97589.53
2022-10-12T10:15:21.561Z,97589.16
2022-10-12T10:17:49.972Z,97588.72
2022-10-12T10:20:25.064Z,97590.56
2022-10-12T10:22:51.396Z,97589.72
2022-10-12T10:25:22.249Z,97594.66
2022-10-12T10:27:51.640Z,97581.75
2022-10-12T10:30:29.898Z,97584.41
2022-10-12T10:33:16.585Z,97588.50
2022-10-12T10:36:15.153Z,97584.44
2022-10-12T10:38:47.677Z,97577.63
2022-10-12T10:41:18.063Z,97585.41
2022-10-12T10:43:47.313Z,97581.16
2022-10-12T10:46:15.460Z,97584.41
2022-10-12T10:48:53.413Z,97576.81
2022-10-12T10:51:20.102Z,97579.25
2022-10-12T10:53:48.256Z,97574.97
2022-10-12T10:56:14.787Z,97577.66
2022-10-12T10:58:45.057Z,97576.00
2022-10-12T11:01:28.541Z,97566.31
2022-10-12T11:04:13.736Z,97565.53
2022-10-12T11:06:50.251Z,97569.81
2022-10-12T11:09:39.325Z,97561.84
2022-10-12T11:12:08.717Z,97561.41
2022-10-12T11:14:40.377Z,97551.41
2022-10-12T11:17:10.958Z,97556.31
2022-10-12T11:19:41.057Z,97555.38
2022-10-12T11:22:13.527Z,97554.13
2022-10-12T11:24:45.376Z,97546.94
2022-10-12T11:27:23.840Z,97548.97
2022-10-12T11:30:02.854Z,97544.88
2022-10-12T11:32:38.327Z,97546.31
2022-10-12T11:35:06.965Z,97546.94
2022-10-12T11:37:37.725Z,97542.25
2022-10-12T11:40:06.729Z,97546.41
2022-10-12T11:42:41.081Z,97540.25
2022-10-12T11:45:19.221Z,97536.72
2022-10-12T11:47:49.142Z,97532.78
2022-10-12T11:50:29.253Z,97535.66
2022-10-12T11:52:56.667Z,97528.09
2022-10-12T11:55:45.384Z,97525.72
2022-10-12T11:58:16.001Z,97521.53
2022-10-12T12:00:54.692Z,97524.59
2022-10-12T12:03:28.391Z,97519.13
2022-10-12T12:05:54.711Z,97509.84
2022-10-12T12:08:22.918Z,97510.28
2022-10-12T12:11:06.287Z,97509.88
2022-10-12T12:13:33.266Z,97506.34
2022-10-12T12:15:59.569Z,97502.91
2022-10-12T12:18:28.253Z,97501.13
2022-10-12T12:21:00.923Z,97498.63
2022-10-12T12:23:38.146Z,97500.41
2022-10-12T12:26:15.850Z,97495.03
2022-10-12T12:28:42.822Z,97503.09
2022-10-12T12:31:15.369Z,97492.38
2022-10-12T12:33:43.273Z,97491.44
2022-10-12T12:36:12.248Z,97490.19
2022-10-12T12:38:48.326Z,97493.03
2022-10-12T12:41:18.976Z,97488.31
2022-10-12T12:43:46.386Z,97494.31
2022-10-12T12:46:13.945Z,97489.88
2022-10-12T12:48:43.379Z,97492.66
2022-10-12T12:51:09.881Z,97491.47
2022-10-12T12:53:49.951Z,97490.56
2022-10-12T12:56:35.232Z,97485.41
2022-10-12T12:59:01.636Z,97487.34
2022-10-12T13:01:31.133Z,97489.50
2022-10-12T13:04:12.653Z,97489.47
2022-10-12T13:06:39.303Z,97487.69
2022-10-12T13:09:15.012Z,97482.56
2022-10-12T13:11:59.965Z,97488.13
2022-10-12T13:14:29.127Z,97483.81
2022-10-12T13:20:15.604Z,97478.97
2022-10-12T13:22:42.173Z,97477.06
2022-10-12T13:25:13.127Z,97473.41
2022-10-12T13:27:44.942Z,97470.97
2022-10-12T13:30:12.444Z,97474.59
2022-10-12T13:32:46.000Z,97466.72
2022-10-12T13:35:18.527Z,97467.38
2022-10-12T13:37:46.016Z,97461.84
2022-10-12T13:40:32.084Z,97462.84
2022-10-12T13:43:17.442Z,97458.53
2022-10-12T13:45:44.458Z,97459.22
2022-10-12T13:48:22.217Z,97461.81
2022-10-12T13:50:57.420Z,97456.94
2022-10-12T13:53:24.367Z,97452.31
2022-10-12T13:55:56.844Z,97449.47
2022-10-12T13:58:30.127Z,97450.69
2022-10-12T14:00:56.579Z,97448.44
2022-10-12T14:03:26.624Z,97453.75
2022-10-12T14:05:56.354Z,97448.44
2022-10-12T14:08:26.164Z,97445.78
2022-10-12T14:10:53.133Z,97448.22
2022-10-12T14:13:31.050Z,97444.53
2022-10-12T14:15:58.228Z,97442.72
2022-10-12T14:18:35.889Z,97437.22
2022-10-12T14:21:05.137Z,97432.06
2022-10-12T14:23:31.647Z,97434.13
2022-10-12T14:25:58.192Z,97438.63
2022-10-12T14:28:25.735Z,97433.31
2022-10-12T14:30:52.905Z,97440.88
2022-10-12T14:33:19.593Z,97437.19
2022-10-12T14:35:49.256Z,97427.41
2022-10-12T14:38:45.187Z,97431.06
2022-10-12T14:41:30.411Z,97430.66
2022-10-12T14:44:09.654Z,97429.81
2022-10-12T14:46:38.297Z,97428.03
2022-10-12T14:49:06.938Z,97429.44
2022-10-12T14:51:34.382Z,97427.38
2022-10-12T14:54:04.671Z,97429.44
2022-10-12T14:56:31.048Z,97423.28
2022-10-12T14:58:58.513Z,97425.34
2022-10-12T15:01:24.999Z,97417.56
2022-10-12T15:03:51.737Z,97415.94
2022-10-12T15:06:19.106Z,97421.25
2022-10-12T15:08:47.792Z,97420.44
2022-10-12T15:11:14.719Z,97419.19
2022-10-12T15:13:41.256Z,97417.56
2022-10-12T15:16:21.140Z,97413.91
2022-10-12T15:18:47.746Z,97417.16
2022-10-12T15:21:14.308Z,97413.91
2022-10-12T15:23:40.623Z,97406.50
2022-10-12T15:26:07.052Z,97412.44
2022-10-12T15:28:33.451Z,97409.56
2022-10-12T15:31:17.078Z,97421.75
2022-10-12T15:33:44.181Z,97422.50
2022-10-12T15:36:11.670Z,97426.69
2022-10-12T15:38:38.103Z,97426.66
2022-10-12T15:41:04.836Z,97423.16
2022-10-12T15:43:33.719Z,97412.31
2022-10-12T15:46:02.378Z,97415.72
2022-10-12T15:48:29.915Z,97419.50
2022-10-12T15:51:07.203Z,97422.28
2022-10-12T15:53:33.520Z,97416.94
2022-10-12T15:55:59.839Z,97419.72
2022-10-12T15:58:28.159Z,97411.06
2022-10-12T16:00:56.394Z,97415.69
2022-10-12T16:03:26.307Z,97417.41
2022-10-12T16:05:55.914Z,97411.59
2022-10-12T16:08:22.582Z,97415.59
2022-10-12T16:10:49.443Z,97408.03
2022-10-12T16:13:17.464Z,97413.19
2022-10-12T16:15:44.346Z,97408.84
2022-10-12T16:18:10.938Z,97406.28
2022-10-12T16:20:38.616Z,97415.59
2022-10-12T16:23:06.552Z,97417.09
2022-10-12T16:25:34.186Z,97415.03
2022-10-12T16:28:02.228Z,97417.94
2022-10-12T16:30:29.444Z,97417.50
2022-10-12T16:32:56.024Z,97418.84
2022-10-12T16:35:22.585Z,97421.56
2022-10-12T16:37:49.087Z,97423.78
2022-10-12T16:40:15.824Z,97431.25
2022-10-12T16:42:46.153Z,97434.88
2022-10-12T16:45:12.504Z,97428.97
2022-10-12T16:47:42.813Z,97431.97
2022-10-12T16:50:09.823Z,97429.56
2022-10-12T16:52:36.146Z,97438.44
2022-10-12T16:55:03.048Z,97437.59
2022-10-12T16:57:29.520Z,97433.50
2022-10-12T16:59:56.046Z,97432.72
2022-10-12T17:02:22.665Z,97438.13
2022-10-12T17:04:51.451Z,97438.00
2022-10-12T17:07:18.165Z,97439.19
2022-10-12T17:09:45.929Z,97439.91
2022-10-12T17:12:12.973Z,97438.28
2022-10-12T17:14:40.622Z,97434.97
2022-10-12T17:17:07.087Z,97445.13
2022-10-12T17:19:34.631Z,97447.97
2022-10-12T17:22:03.529Z,97453.66
2022-10-12T17:24:31.350Z,97449.59
2022-10-12T17:26:58.125Z,97451.97
2022-10-12T17:29:25.647Z,97444.00
2022-10-12T17:31:52.514Z,97444.19
2022-10-12T17:34:20.611Z,97448.34
2022-10-12T17:36:47.531Z,97449.31
2022-10-12T17:39:14.260Z,97449.66
2022-10-12T17:41:40.580Z,97451.84
2022-10-12T17:44:06.989Z,97457.41
2022-10-12T17:46:33.492Z,97458.91
2022-10-12T17:48:59.893Z,97451.66
2022-10-12T17:51:26.492Z,97449.78
2022-10-12T17:53:53.542Z,97454.81
2022-10-12T17:56:19.955Z,97447.50
2022-10-12T17:58:46.355Z,97454.44
2022-10-12T18:01:15.490Z,97446.78
2022-10-12T18:03:46.080Z,97444.53
2022-10-12T18:06:18.080Z,97442.09
2022-10-12T18:08:44.767Z,97446.38
2022-10-12T18:11:11.771Z,97448.50
2022-10-12T18:13:40.229Z,97448.19
2022-10-12T18:16:10.750Z,97455.13
2022-10-12T18:18:37.571Z,97451.81
2022-10-12T18:21:04.981Z,97446.25
2022-10-12T18:23:32.544Z,97450.69
2022-10-12T18:26:03.249Z,97448.22
2022-10-12T18:28:30.907Z,97448.75
2022-10-12T18:30:57.921Z,97455.81
2022-10-12T18:33:25.624Z,97455.16
2022-10-12T18:35:54.266Z,97453.53
2022-10-12T18:38:21.028Z,97461.75
2022-10-12T18:40:47.590Z,97455.34
2022-10-12T18:43:14.404Z,97456.84
2022-10-12T18:45:42.827Z,97462.91
2022-10-12T18:48:09.546Z,97464.41
2022-10-12T18:50:36.741Z,97463.41
2022-10-12T18:53:03.217Z,97463.56
2022-10-12T18:55:29.644Z,97459.13
2022-10-12T18:57:57.972Z,97464.72
2022-10-12T19:00:24.610Z,97460.44
2022-10-12T19:02:57.084Z,97462.72
2022-10-12T19:05:27.577Z,97458.94
2022-10-12T19:07:55.921Z,97457.97
2022-10-12T19:10:22.233Z,97460.28
2022-10-12T19:12:51.694Z,97459.78
2022-10-12T19:15:18.104Z,97464.06
2022-10-12T19:17:44.560Z,97471.59
2022-10-12T19:20:12.211Z,97471.75
2022-10-12T19:22:49.326Z,97477.69
2022-10-12T19:25:15.888Z,97476.50
2022-10-12T19:27:42.265Z,97473.25
2022-10-12T19:30:09.207Z,97473.09
2022-10-12T19:32:35.537Z,97484.19
2022-10-12T19:35:01.869Z,97483.69
2022-10-12T19:37:28.200Z,97480.28
2022-10-12T19:39:55.090Z,97480.94
2022-10-12T19:42:21.517Z,97472.09
2022-10-12T19:44:47.908Z,97480.81
2022-10-12T19:47:15.341Z,97467.03
2022-10-12T19:49:45.169Z,97471.28
2022-10-12T19:52:11.905Z,97469.28
2022-10-12T19:54:38.225Z,97475.19
2022-10-12T19:57:04.604Z,97476.16
2022-10-12T19:59:31.010Z,97472.22
2022-10-12T20:01:57.433Z,97473.53
2022-10-12T20:04:28.911Z,97475.03
2022-10-12T20:06:55.321Z,97465.63
2022-10-12T20:09:23.725Z,97468.28
2022-10-12T20:11:50.061Z,97475.66
2022-10-12T20:14:16.384Z,97469.25
2022-10-12T20:16:42.778Z,97468.75
2022-10-12T20:19:09.173Z,97475.13
2022-10-12T20:21:36.642Z,97473.19
2022-10-12T20:24:03.323Z,97477.59
2022-10-12T20:26:31.833Z,97481.06
2022-10-12T20:28:58.238Z,97474.34
2022-10-12T20:31:25.096Z,97478.06
2022-10-12T20:33:54.244Z,97472.97
2022-10-12T20:36:22.501Z,97477.34
2022-10-12T20:38:48.940Z,97481.25
2022-10-12T20:41:17.288Z,97485.19
2022-10-12T20:43:43.918Z,97487.25
2022-10-12T20:46:14.711Z,97486.31
2022-10-12T20:48:44.579Z,97487.56
2022-10-12T20:51:17.807Z,97482.06
2022-10-12T20:53:44.200Z,97476.59
2022-10-12T20:56:11.270Z,97491.63
2022-10-12T20:58:37.621Z,97481.16
2022-10-12T21:01:05.101Z,97486.97
2022-10-12T21:03:31.652Z,97484.38
2022-10-12T21:06:01.455Z,97484.88
2022-10-12T21:08:27.849Z,97487.56
2022-10-12T21:10:54.169Z,97489.00
2022-10-12T21:13:20.634Z,97486.78
2022-10-12T21:15:50.967Z,97486.19
2022-10-12T21:18:17.441Z,97484.16
2022-10-12T21:20:43.781Z,97480.19
2022-10-12T21:23:10.113Z,97475.47
2022-10-12T21:25:36.441Z,97478.19
2022-10-12T21:28:02.776Z,97478.81
2022-10-12T21:30:30.309Z,97477.06
2022-10-12T21:32:56.660Z,97472.75
2022-10-12T21:35:23.027Z,97467.19
2022-10-12T21:37:55.239Z,97459.97
2022-10-12T21:40:21.761Z,97465.75
2022-10-12T21:42:48.379Z,97463.06
2022-10-12T21:45:14.956Z,97466.63
2022-10-12T21:47:41.280Z,97460.56
2022-10-12T21:50:09.341Z,97465.16
2022-10-12T21:52:35.922Z,97473.44
2022-10-12T21:55:03.368Z,97465.81
2022-10-12T21:57:29.727Z,97469.59
2022-10-12T21:59:56.067Z,97472.16
2022-10-12T22:02:22.632Z,97469.38
2022-10-12T22:04:48.987Z,97468.69
2022-10-12T22:07:15.317Z,97473.94
2022-10-12T22:09:41.694Z,97467.06
2022-10-12T22:12:09.276Z,97472.50
2022-10-12T22:14:35.624Z,97469.38
2022-10-12T22:17:01.969Z,97473.38
2022-10-12T22:19:28.304Z,97475.84
2022-10-12T22:21:54.743Z,97475.53
2022-10-12T22:24:21.224Z,97478.72
2022-10-12T22:26:49.803Z,97472.19
2022-10-12T22:29:16.269Z,97469.31
2022-10-12T22:31:44.316Z,97458.47
2022-10-12T22:34:10.764Z,97461.31
2022-10-12T22:36:37.108Z,97463.00
2022-10-12T22:39:03.986Z,97457.25
2022-10-12T22:41:30.387Z,97449.94
2022-10-12T22:43:57.073Z,97451.34
2022-10-12T22:46:24.410Z,97465.44
2022-10-12T22:48:51.233Z,97456.69
2022-10-12T22:51:22.249Z,97456.44
2022-10-12T22:53:48.657Z,97453.50
2022-10-12T22:56:16.756Z,97453.34
2022-10-12T22:58:43.285Z,97457.19
2022-10-12T23:01:11.110Z,97460.34
2022-10-12T23:03:38.254Z,97453.44
2022-10-12T23:06:06.190Z,97462.91
2022-10-12T23:08:33.751Z,97451.91
2022-10-12T23:11:05.364Z,97454.06
2022-10-12T23:13:32.756Z,97447.81
2022-10-12T23:16:06.749Z,97449.50
2022-10-12T23:18:36.204Z,97436.66
2022-10-12T23:21:06.341Z,97439.94
2022-10-12T23:23:33.901Z,97432.47
2022-10-12T23:26:01.621Z,97431.34
2022-10-12T23:28:28.557Z,97429.34
2022-10-12T23:30:54.947Z,97439.25
2022-10-12T23:33:21.699Z,97434.16
2022-10-12T23:36:04.850Z,97435.19
2022-10-12T23:38:32.047Z,97436.91
2022-10-12T23:41:00.727Z,97438.34
2022-10-12T23:43:27.477Z,97439.91
2022-10-12T23:45:54.049Z,97441.09
2022-10-12T23:48:20.457Z,97429.41
2022-10-12T23:50:47.053Z,97430.78
2022-10-12T23:53:13.591Z,97433.88
2022-10-12T23:55:41.965Z,97439.97
2022-10-12T23:58:08.355Z,97439.69
